Aviation Digital Data Service (ADDS)

Output produced by METARs form (0034 UTC 26 June 2019)
found at http://aviationweather.gov/metar/data/
 
KJAN 252354Z 15008KT 10SM -RA SCT055 BKN090 OVC110 22/20 A3010 RMK AO2 TSE37 SLP189 TS MOV E P0006 60023 T02220200 10306 20222 50012 $
KJAN 252343Z 16008KT 10SM -RA SCT055 BKN090 OVC110 23/20 A3011 RMK AO2 TSE37 TS MOV E P0006 T02280200 $
KJAN 252350Z 2600/2624 22004KT P6SM FEW030 OVC070 
     FM261500 23007KT P6SM OVC100